Time;durP1;ratioP1;P1;durP2;ratioP2;P2;SDS_P1;SDS_P2;PMS_P1;PMS_P2;Temp;Humidity;BMP_temperature;BMP_pressure;BME280_temperature;BME280_humidity;BME280_pressure;Samples;Min_cycle;Max_cycle;Signal;HPM_P1;HPM_P2
2023/06/11 00:00:33;;;;;;;;;;;;;;;-146.25;77.93;52003.25;2073168;28;31785;-72
2023/06/11 00:01:35;;;;;;;;;;;;;;;-146.25;78.18;51956.63;2072257;28;32890;-71
2023/06/11 00:02:41;;;;;;;;;;;;;;;-146.25;78.11;52011.34;2079995;28;39655;-71
2023/06/11 00:03:52;;;;;;;;;;;;;;;-146.25;78.22;52015.41;2080271;28;31453;-69
2023/06/11 00:04:57;;;;;;;;;;;;;;;-146.25;78.49;51952.56;2073069;28;33940;-72
2023/06/11 00:05:59;;;;;;;;;;;;;;;-146.25;78.37;51987.03;2072745;28;32917;-71
2023/06/11 00:07:05;;;;;;;;;;;;;;;-146.25;78.40;51985.00;2081322;28;19929;-71
2023/06/11 00:08:09;;;;;;;;;;;;;;;-146.25;78.38;52007.31;2076260;28;38059;-71
2023/06/11 00:09:13;;;;;;;;;;;;;;;-146.25;78.54;52005.28;2072156;28;33293;-71
2023/06/11 00:10:16;;;;;;;;;;;;;;;-146.25;78.58;51978.91;2076912;28;31197;-71
2023/06/11 00:11:18;;;;;;;;;;;;;;;-146.25;78.49;52029.59;2080138;28;37877;-70
2023/06/11 00:12:19;;;;;;;;;;;;;;;-146.25;78.40;51993.09;2075265;28;20447;-71
2023/06/11 00:13:23;;;;;;;;;;;;;;;-146.25;78.88;51958.66;2072163;28;38578;-71
2023/06/11 00:14:25;;;;;;;;;;;;;;;-146.25;78.51;51991.09;2078058;28;33716;-72
2023/06/11 00:15:32;;;;;;;;;;;;;;;-146.25;78.76;51989.06;2080606;28;32747;-71
2023/06/11 00:16:36;;;;;;;;;;;;;;;-146.25;78.82;52011.34;2072460;28;37605;-71
2023/06/11 00:17:38;;;;;;;;;;;;;;;-146.25;78.92;51982.97;2071830;28;36949;-72
2023/06/11 00:18:41;;;;;;;;;;;;;;;-146.25;78.63;52003.25;2071263;28;38627;-70
2023/06/11 00:19:44;;;;;;;;;;;;;;;-146.25;78.97;51991.09;2071817;28;37162;-71
2023/06/11 00:20:47;;;;;;;;;;;;;;;-146.25;79.26;52013.38;2079209;28;35154;-71
2023/06/11 00:21:49;;;;;;;;;;;;;;;-146.25;79.29;52007.31;2079235;28;35275;-71
2023/06/11 00:22:51;;;;;;;;;;;;;;;-146.25;79.17;51985.00;2072616;28;19979;-70
2023/06/11 00:23:52;;;;;;;;;;;;;;;-146.25;78.97;52003.25;2073815;28;33579;-71
2023/06/11 00:24:54;;;;;;;;;;;;;;;-146.25;79.94;52001.22;2080477;28;33126;-71
2023/06/11 00:25:57;;;;;;;;;;;;;;;-146.25;79.60;51991.09;2079453;28;19972;-71
2023/06/11 00:27:01;;;;;;;;;;;;;;;-146.25;80.10;52007.31;2071577;28;40521;-71
2023/06/11 00:28:03;;;;;;;;;;;;;;;-146.25;80.50;51995.13;2075340;28;20833;-71
2023/06/11 00:29:08;;;;;;;;;;;;;;;-146.25;80.73;52001.22;2080520;28;20774;-71
2023/06/11 00:30:10;;;;;;;;;;;;;;;-146.25;80.88;51991.09;2076297;28;39016;-72
2023/06/11 00:31:11;;;;;;;;;;;;;;;-146.25;80.49;51991.09;2072548;28;19929;-69
2023/06/11 00:32:13;;;;;;;;;;;;;;;-146.25;80.76;51993.09;2076437;28;19983;-72
2023/06/11 00:33:16;;;;;;;;;;;;;;;-146.25;81.08;51980.94;2080323;28;19918;-71
2023/06/11 00:34:18;;;;;;;;;;;;;;;-146.25;80.87;52011.34;2075802;28;20865;-72
2023/06/11 00:35:20;;;;;;;;;;;;;;;-146.25;80.99;51999.19;2071827;28;39367;-71
2023/06/11 00:36:26;;;;;;;;;;;;;;;-146.25;81.26;51982.97;2077300;28;30207;-71
2023/06/11 00:37:32;;;;;;;;;;;;;;;-146.25;81.13;51982.97;2079693;28;28776;-71
2023/06/11 00:38:34;;;;;;;;;;;;;;;-146.25;81.43;52015.41;2073069;28;33620;-71
2023/06/11 00:39:35;;;;;;;;;;;;;;;-146.25;81.80;51999.19;2072153;28;29064;-71
2023/06/11 00:40:37;;;;;;;;;;;;;;;-146.25;81.55;52003.25;2079789;28;20060;-72
2023/06/11 00:41:45;;;;;;;;;;;;;;;-146.25;81.89;51978.91;2079370;28;28988;-72
2023/06/11 00:42:49;;;;;;;;;;;;;;;-146.25;82.04;51972.84;2080447;28;27951;-70
2023/06/11 00:43:56;;;;;;;;;;;;;;;-146.25;82.35;52027.56;2079963;28;33501;-71
2023/06/11 00:44:57;;;;;;;;;;;;;;;-146.25;82.05;52003.25;2079940;28;20051;-71
2023/06/11 00:46:02;;;;;;;;;;;;;;;-146.25;81.94;51976.88;2077077;28;31879;-71
2023/06/11 00:47:06;;;;;;;;;;;;;;;-146.25;82.03;51978.91;2072980;28;19965;-71
2023/06/11 00:48:07;;;;;;;;;;;;;;;-146.25;82.34;51999.19;2076025;28;19975;-72
2023/06/11 00:49:11;;;;;;;;;;;;;;;-146.25;82.74;51974.88;2080936;28;24951;-71
2023/06/11 00:50:12;;;;;;;;;;;;;;;-146.25;82.63;51987.03;2075484;28;20019;-71
2023/06/11 00:51:17;;;;;;;;;;;;;;;-146.25;82.56;52001.22;2073268;28;19930;-71
2023/06/11 00:52:19;;;;;;;;;;;;;;;-146.25;82.93;51962.69;2077728;28;19925;-72
2023/06/11 00:53:21;;;;;;;;;;;;;;;-146.25;83.00;52007.31;2079676;28;25889;-71
2023/06/11 00:54:26;;;;;;;;;;;;;;;-146.25;82.97;51974.88;2074007;28;20892;-71
2023/06/11 00:55:27;;;;;;;;;;;;;;;-146.25;82.98;52003.25;2071954;28;29013;-71
2023/06/11 00:56:29;;;;;;;;;;;;;;;-146.25;83.03;51970.81;2079376;28;19928;-71
2023/06/11 00:57:31;;;;;;;;;;;;;;;-146.25;83.27;51997.16;2079440;28;23989;-71
2023/06/11 00:58:34;;;;;;;;;;;;;;;-146.25;83.45;51989.06;2064098;28;27969;-72
2023/06/11 00:59:38;;;;;;;;;;;;;;;-146.25;83.51;51991.09;2072003;28;19972;-72
2023/06/11 01:00:47;;;;;;;;;;;;;;;-146.25;83.83;51964.72;2072536;28;20750;-71
2023/06/11 01:01:59;;;;;;;;;;;;;;;-146.25;84.06;52009.31;2080612;28;19926;-70
2023/06/11 01:03:10;;;;;;;;;;;;;;;-146.25;83.46;51987.03;2078616;28;19925;-71
2023/06/11 01:04:18;;;;;;;;;;;;;;;-146.25;84.22;51989.06;2075711;28;29629;-71
2023/06/11 01:05:25;;;;;;;;;;;;;;;-146.25;84.09;51991.09;2080208;28;19925;-71
2023/06/11 01:06:33;;;;;;;;;;;;;;;-146.25;84.32;52011.34;2073875;28;19936;-71
2023/06/11 01:07:41;;;;;;;;;;;;;;;-146.25;83.83;51974.88;2071571;28;32640;-72
2023/06/11 01:08:52;;;;;;;;;;;;;;;-146.25;83.90;52043.78;2064888;28;20012;-71
2023/06/11 01:09:58;;;;;;;;;;;;;;;-146.25;84.53;51991.09;2073916;28;20107;-71
2023/06/11 01:11:01;;;;;;;;;;;;;;;-146.25;84.60;52013.38;2080759;28;27153;-71
2023/06/11 01:12:08;;;;;;;;;;;;;;;-146.25;84.45;51976.88;2079896;28;20079;-71
2023/06/11 01:13:11;;;;;;;;;;;;;;;-146.25;83.95;51999.19;2071937;28;19922;-71
2023/06/11 01:14:13;;;;;;;;;;;;;;;-146.25;84.26;51995.13;2067135;28;20185;-71
2023/06/11 01:15:15;;;;;;;;;;;;;;;-146.25;85.13;52035.69;2063642;28;20036;-71
2023/06/11 01:16:34;;;;;;;;;;;;;;;-146.25;84.99;52031.63;2076384;28;28101;-71
2023/06/11 01:17:57;;;;;;;;;;;;;;;-146.25;84.92;52011.34;2080492;28;23991;-72
2023/06/11 01:19:20;;;;;;;;;;;;;;;-146.25;85.15;52045.81;2079784;28;20913;-71
2023/06/11 01:20:35;;;;;;;;;;;;;;;-146.25;85.55;51989.06;2080443;28;20006;-71
2023/06/11 01:21:49;;;;;;;;;;;;;;;-146.25;85.65;52013.38;2087811;28;19913;-71
2023/06/11 01:23:15;;;;;;;;;;;;;;;-146.25;85.39;51991.09;2079716;28;19921;-72
2023/06/11 01:24:21;;;;;;;;;;;;;;;-146.25;85.15;51999.19;2070022;28;21017;-71
2023/06/11 01:25:44;;;;;;;;;;;;;;;-146.25;85.25;52003.25;2063768;28;20834;-71
2023/06/11 01:27:10;;;;;;;;;;;;;;;-146.25;85.67;52019.47;2074452;28;19921;-71
2023/06/11 01:28:17;;;;;;;;;;;;;;;-146.25;85.66;51995.13;2073399;28;19929;-72
2023/06/11 01:29:21;;;;;;;;;;;;;;;-146.25;85.61;52009.31;2079153;28;38426;-71
2023/06/11 01:30:25;;;;;;;;;;;;;;;-146.25;85.77;51997.16;2071717;28;19921;-71
2023/06/11 01:31:32;;;;;;;;;;;;;;;-146.25;85.92;51991.09;2071065;28;23344;-71
2023/06/11 01:32:36;;;;;;;;;;;;;;;-146.25;86.42;51991.09;2080171;28;19921;-72
2023/06/11 01:33:44;;;;;;;;;;;;;;;-146.25;85.60;52045.81;2079507;28;19913;-71
2023/06/11 01:34:59;;;;;;;;;;;;;;;-146.25;86.00;52001.22;2070505;28;20837;-71
2023/06/11 01:36:05;;;;;;;;;;;;;;;-146.25;86.07;51966.75;2072997;28;19924;-71
2023/06/11 01:37:12;;;;;;;;;;;;;;;-146.25;86.10;52031.63;2080043;28;20741;-71
2023/06/11 01:38:15;;;;;;;;;;;;;;;-146.25;86.14;52027.56;2072700;28;19925;-72
2023/06/11 01:39:22;;;;;;;;;;;;;;;-146.25;86.39;52041.75;2064226;28;20755;-71
2023/06/11 01:40:31;;;;;;;;;;;;;;;-146.25;86.36;52015.41;2067412;28;20107;-71
2023/06/11 01:41:34;;;;;;;;;;;;;;;-146.25;86.24;52021.50;2070720;28;19992;-72
2023/06/11 01:42:37;;;;;;;;;;;;;;;-146.25;86.07;52011.34;2067494;28;19914;-70
2023/06/11 01:43:39;;;;;;;;;;;;;;;-146.25;86.34;52005.28;2071309;28;19926;-71
2023/06/11 01:44:43;;;;;;;;;;;;;;;-146.25;86.02;51995.13;2076236;28;22583;-71
2023/06/11 01:45:45;;;;;;;;;;;;;;;-146.25;85.77;51999.19;2079911;28;31516;-72
2023/06/11 01:46:47;;;;;;;;;;;;;;;-146.25;85.87;51999.19;2074154;28;19933;-72
2023/06/11 01:47:50;;;;;;;;;;;;;;;-146.25;86.13;51991.09;2071345;28;23844;-71
2023/06/11 01:48:52;;;;;;;;;;;;;;;-146.25;85.63;52045.81;2077864;28;29469;-72
2023/06/11 01:49:53;;;;;;;;;;;;;;;-146.25;85.74;51991.09;2079955;28;19928;-71
2023/06/11 01:50:55;;;;;;;;;;;;;;;-146.25;85.70;52001.22;2073170;28;20825;-71
2023/06/11 01:51:56;;;;;;;;;;;;;;;-146.25;85.74;52007.31;2071544;28;23106;-72
2023/06/11 01:52:58;;;;;;;;;;;;;;;-146.25;85.38;52011.34;2078625;28;32256;-71
2023/06/11 01:54:02;;;;;;;;;;;;;;;-146.25;85.71;52019.47;2079587;28;19917;-71
2023/06/11 01:55:04;;;;;;;;;;;;;;;-146.25;85.42;51989.06;2071719;28;19926;-71
2023/06/11 01:56:06;;;;;;;;;;;;;;;-146.25;85.48;51989.06;2079293;28;22399;-71
2023/06/11 01:57:08;;;;;;;;;;;;;;;-146.25;85.07;52003.25;2071524;28;19932;-71
2023/06/11 01:58:10;;;;;;;;;;;;;;;-146.25;85.07;52015.41;2071957;28;19917;-71
2023/06/11 01:59:13;;;;;;;;;;;;;;;-146.25;84.86;52009.31;2071315;28;19981;-71
2023/06/11 02:00:15;;;;;;;;;;;;;;;-146.25;85.16;52001.22;2072041;28;20012;-72
2023/06/11 02:01:20;;;;;;;;;;;;;;;-146.25;85.05;52003.25;2071443;28;42663;-71
2023/06/11 02:02:25;;;;;;;;;;;;;;;-146.25;84.61;52011.34;2074653;28;19929;-71
2023/06/11 02:03:29;;;;;;;;;;;;;;;-146.25;84.61;52003.25;2072866;28;20084;-72
2023/06/11 02:04:31;;;;;;;;;;;;;;;-146.25;84.89;52037.72;2076161;28;19980;-72
2023/06/11 02:05:32;;;;;;;;;;;;;;;-146.25;84.48;51987.03;2080031;28;29560;-71
2023/06/11 02:06:34;;;;;;;;;;;;;;;-146.25;84.52;51987.03;2081005;28;20675;-72
2023/06/11 02:07:36;;;;;;;;;;;;;;;-146.25;84.17;52003.25;2081237;28;20071;-72
2023/06/11 02:08:37;;;;;;;;;;;;;;;-146.25;84.17;52031.63;2076731;28;20367;-71
2023/06/11 02:09:39;;;;;;;;;;;;;;;-146.25;83.56;52003.25;2073481;28;20584;-72
2023/06/11 02:10:42;;;;;;;;;;;;;;;-146.25;83.61;52043.78;2078192;28;29311;-71
2023/06/11 02:11:44;;;;;;;;;;;;;;;-146.25;83.49;51987.03;2080822;28;20023;-71
2023/06/11 02:12:48;;;;;;;;;;;;;;;-146.25;82.93;52011.34;2075456;28;19940;-71
2023/06/11 02:13:51;;;;;;;;;;;;;;;-146.25;83.18;51982.97;2073715;28;19972;-71
2023/06/11 02:14:53;;;;;;;;;;;;;;;-146.25;82.84;51999.19;2078902;28;19925;-71
2023/06/11 02:15:55;;;;;;;;;;;;;;;-146.25;82.87;52039.75;2081164;28;20109;-72
2023/06/11 02:16:56;;;;;;;;;;;;;;;-146.25;82.66;51982.97;2074091;28;19914;-70
2023/06/11 02:18:07;;;;;;;;;;;;;;;-146.25;82.10;51982.97;2065950;28;19918;-72
2023/06/11 02:19:08;;;;;;;;;;;;;;;-146.25;81.76;51997.16;2080703;28;19929;-71
2023/06/11 02:20:12;;;;;;;;;;;;;;;-146.25;82.14;52015.41;2079775;28;32501;-71
2023/06/11 02:21:13;;;;;;;;;;;;;;;-146.25;81.52;52007.31;2064769;28;19922;-71
2023/06/11 02:22:15;;;;;;;;;;;;;;;-146.25;81.55;52019.47;2074185;28;29564;-72
2023/06/11 02:23:18;;;;;;;;;;;;;;;-146.25;81.11;51999.19;2080854;28;19921;-71
2023/06/11 02:24:19;;;;;;;;;;;;;;;-146.25;80.80;51991.09;2070843;28;25595;-71
2023/06/11 02:25:21;;;;;;;;;;;;;;;-146.25;80.49;52039.75;2072597;28;19977;-71
2023/06/11 02:26:26;;;;;;;;;;;;;;;-146.25;80.27;52003.25;2067639;28;20045;-71
2023/06/11 02:27:30;;;;;;;;;;;;;;;-146.25;80.51;52017.44;2072620;28;19968;-71
2023/06/11 02:28:34;;;;;;;;;;;;;;;-146.25;79.88;51995.13;2077412;28;19929;-72
2023/06/11 02:29:36;;;;;;;;;;;;;;;-146.25;79.56;52017.44;2072329;28;19929;-70
2023/06/11 02:30:38;;;;;;;;;;;;;;;-146.25;79.69;51982.97;2068366;28;20032;-71
2023/06/11 02:31:43;;;;;;;;;;;;;;;-146.25;79.63;52009.31;2072700;28;20710;-71
2023/06/11 02:32:46;;;;;;;;;;;;;;;-146.25;79.55;52015.41;2075610;28;20765;-71
2023/06/11 02:33:48;;;;;;;;;;;;;;;-146.25;79.71;51999.19;2064538;28;19929;-71
2023/06/11 02:34:49;;;;;;;;;;;;;;;-146.25;79.05;52011.34;2070299;28;20781;-71
2023/06/11 02:35:51;;;;;;;;;;;;;;;-146.25;78.60;52003.25;2064031;28;20048;-71
2023/06/11 02:36:53;;;;;;;;;;;;;;;-146.25;78.17;51980.94;2078488;28;30797;-71
2023/06/11 02:37:54;;;;;;;;;;;;;;;-146.25;78.37;52031.63;2080583;28;19998;-71
2023/06/11 02:38:56;;;;;;;;;;;;;;;-146.25;77.72;51993.09;2073875;28;29861;-72
2023/06/11 02:39:57;;;;;;;;;;;;;;;-146.25;77.71;52017.44;2072864;28;35685;-71
2023/06/11 02:40:59;;;;;;;;;;;;;;;-146.25;77.88;52009.31;2079835;28;19929;-72
2023/06/11 02:42:01;;;;;;;;;;;;;;;-146.25;77.87;51993.09;2080076;28;28999;-71
2023/06/11 02:43:02;;;;;;;;;;;;;;;-146.25;77.33;51982.97;2072913;28;19925;-71
2023/06/11 02:44:04;;;;;;;;;;;;;;;-146.25;77.63;52021.50;2064355;28;19926;-71
2023/06/11 02:45:06;;;;;;;;;;;;;;;-146.25;77.47;51987.03;2072433;28;19973;-71
2023/06/11 02:46:08;;;;;;;;;;;;;;;-146.25;77.36;52005.28;2080540;28;19932;-72
2023/06/11 02:47:10;;;;;;;;;;;;;;;-146.25;77.44;52031.63;2072788;28;20912;-70
2023/06/11 02:48:12;;;;;;;;;;;;;;;-146.25;76.51;52062.03;2073128;28;19929;-71
2023/06/11 02:49:14;;;;;;;;;;;;;;;-146.25;76.86;51993.09;2081558;28;24635;-71
2023/06/11 02:50:16;;;;;;;;;;;;;;;-146.25;77.06;51999.19;2079835;28;19928;-72
2023/06/11 02:51:17;;;;;;;;;;;;;;;-146.25;76.68;52043.78;2072544;28;19921;-71
2023/06/11 02:52:19;;;;;;;;;;;;;;;-146.25;75.25;52001.22;2065562;28;25154;-71
2023/06/11 02:53:21;;;;;;;;;;;;;;;-146.25;75.54;52013.38;2072356;28;25361;-71
2023/06/11 02:54:23;;;;;;;;;;;;;;;-146.25;75.34;52025.53;2078006;28;29655;-72
2023/06/11 02:55:25;;;;;;;;;;;;;;;-146.25;74.91;52009.31;2072865;28;19921;-71
2023/06/11 02:56:26;;;;;;;;;;;;;;;-146.25;75.04;52029.59;2075125;28;20091;-71
2023/06/11 02:57:29;;;;;;;;;;;;;;;-146.25;74.94;52011.34;2080530;28;23388;-72
2023/06/11 02:58:31;;;;;;;;;;;;;;;-146.25;75.06;52011.34;2077830;28;27473;-71
2023/06/11 02:59:35;;;;;;;;;;;;;;;-146.25;74.58;52011.34;2073383;28;19930;-71
2023/06/11 03:00:37;;;;;;;;;;;;;;;-146.25;74.69;52027.56;2076390;28;20055;-72
2023/06/11 03:01:39;;;;;;;;;;;;;;;-146.25;74.04;52041.75;2072201;28;19933;-72
2023/06/11 03:02:44;;;;;;;;;;;;;;;-146.25;73.93;52009.31;2085463;28;20724;-71
2023/06/11 03:03:48;;;;;;;;;;;;;;;-146.25;73.75;51993.09;2080781;28;19928;-71
2023/06/11 03:04:56;;;;;;;;;;;;;;;-146.25;73.16;52023.53;2073239;28;19917;-71
2023/06/11 03:05:58;;;;;;;;;;;;;;;-146.25;73.21;51989.06;2080646;28;19918;-71
2023/06/11 03:07:03;;;;;;;;;;;;;;;-146.25;72.23;52033.66;2080850;28;19921;-71
2023/06/11 03:08:04;;;;;;;;;;;;;;;-146.25;72.59;52005.28;2080685;28;19995;-71
2023/06/11 03:09:06;;;;;;;;;;;;;;;-146.25;72.39;52031.63;2072367;28;20738;-71
2023/06/11 03:10:09;;;;;;;;;;;;;;;-146.25;72.09;52033.66;2064665;28;19926;-71
2023/06/11 03:11:11;;;;;;;;;;;;;;;-146.25;71.94;51989.06;2080676;28;19922;-69
2023/06/11 03:12:17;;;;;;;;;;;;;;;-146.25;72.15;51989.06;2079098;28;19964;-71
2023/06/11 03:13:20;;;;;;;;;;;;;;;-146.25;71.91;52001.22;2064123;28;19925;-70
2023/06/11 03:14:28;;;;;;;;;;;;;;;-146.25;72.37;52051.91;2066873;28;19929;-71
2023/06/11 03:15:30;;;;;;;;;;;;;;;-146.25;71.57;52019.47;2072316;28;19922;-71
2023/06/11 03:16:33;;;;;;;;;;;;;;;-146.25;71.26;52013.38;2076912;28;19924;-71
2023/06/11 03:17:37;;;;;;;;;;;;;;;-146.25;70.86;52033.66;2072527;28;20726;-71
2023/06/11 03:18:38;;;;;;;;;;;;;;;-146.25;70.82;52001.22;2076568;28;21270;-72
2023/06/11 03:19:40;;;;;;;;;;;;;;;-146.25;71.21;52015.41;2080229;28;24139;-70
2023/06/11 03:20:43;;;;;;;;;;;;;;;-146.25;70.72;52009.31;2075523;28;19922;-71
2023/06/11 03:21:45;;;;;;;;;;;;;;;-146.25;70.70;52039.75;2064125;28;20000;-72
2023/06/11 03:22:48;;;;;;;;;;;;;;;-146.25;70.21;52033.66;2070061;28;19933;-72
2023/06/11 03:23:54;;;;;;;;;;;;;;;-146.25;69.91;51987.03;2072525;28;19968;-71
2023/06/11 03:24:56;;;;;;;;;;;;;;;-146.25;70.23;52031.63;2065857;28;28736;-71
2023/06/11 03:26:05;;;;;;;;;;;;;;;-146.25;70.04;51952.56;2065343;28;20846;-71
2023/06/11 03:27:13;;;;;;;;;;;;;;;-146.25;70.08;51995.13;2065055;28;19926;-71
2023/06/11 03:28:17;;;;;;;;;;;;;;;-146.25;69.77;51989.06;2065195;28;21036;-71
2023/06/11 03:29:19;;;;;;;;;;;;;;;-146.25;69.51;52003.25;2073021;28;19925;-72
2023/06/11 03:30:27;;;;;;;;;;;;;;;-146.25;69.54;51987.03;2078692;28;19925;-71
2023/06/11 03:31:28;;;;;;;;;;;;;;;-146.25;69.56;52003.25;2080251;28;24666;-72
2023/06/11 03:32:30;;;;;;;;;;;;;;;-146.25;69.65;52019.47;2077108;28;20000;-72
2023/06/11 03:33:32;;;;;;;;;;;;;;;-146.25;69.29;51993.09;2064136;28;19989;-72
2023/06/11 03:34:36;;;;;;;;;;;;;;;-146.25;69.19;52001.22;2067279;28;20847;-72
2023/06/11 03:35:38;;;;;;;;;;;;;;;-146.25;68.65;52043.78;2073986;28;19925;-72
2023/06/11 03:36:49;;;;;;;;;;;;;;;-146.25;69.22;52037.72;2077827;28;19925;-71
2023/06/11 03:37:53;;;;;;;;;;;;;;;-146.25;69.06;52055.97;2072386;28;19929;-70
2023/06/11 03:39:02;;;;;;;;;;;;;;;-146.25;69.29;51999.19;2079144;28;19918;-72
2023/06/11 03:40:05;;;;;;;;;;;;;;;-146.25;68.79;51997.16;2080147;28;19921;-71
2023/06/11 03:41:09;;;;;;;;;;;;;;;-146.25;68.93;52007.31;2087901;28;20935;-71
2023/06/11 03:42:11;;;;;;;;;;;;;;;-146.25;68.99;52003.25;2072326;28;19921;-71
2023/06/11 03:43:13;;;;;;;;;;;;;;;-146.25;68.58;52007.31;2079836;28;19929;-71
2023/06/11 03:44:16;;;;;;;;;;;;;;;-146.25;68.01;52013.38;2071799;28;20679;-71
2023/06/11 03:45:17;;;;;;;;;;;;;;;-146.25;68.05;52007.31;2071935;28;19932;-72
2023/06/11 03:46:21;;;;;;;;;;;;;;;-146.25;67.50;52015.41;2077818;28;22394;-71
2023/06/11 03:47:22;;;;;;;;;;;;;;;-146.25;67.51;52011.34;2079681;28;20722;-71
2023/06/11 03:48:24;;;;;;;;;;;;;;;-146.25;67.31;52045.81;2073823;28;25284;-72
2023/06/11 03:49:26;;;;;;;;;;;;;;;-146.25;67.47;51987.03;2079703;28;25521;-72
2023/06/11 03:50:30;;;;;;;;;;;;;;;-146.25;67.01;52011.34;2077056;28;19926;-71
2023/06/11 03:51:32;;;;;;;;;;;;;;;-146.25;66.34;52001.22;2072736;28;20040;-71
2023/06/11 03:52:34;;;;;;;;;;;;;;;-146.25;66.48;52003.25;2075788;28;19980;-71
2023/06/11 03:53:35;;;;;;;;;;;;;;;-146.25;67.14;52021.50;2072299;28;19925;-72
2023/06/11 03:54:37;;;;;;;;;;;;;;;-146.25;66.72;51987.03;2076264;28;21012;-71
2023/06/11 03:55:39;;;;;;;;;;;;;;;-146.25;66.59;52015.41;2080555;28;23445;-72
2023/06/11 03:56:42;;;;;;;;;;;;;;;-146.25;66.08;52029.59;2077071;28;19914;-71
2023/06/11 03:57:45;;;;;;;;;;;;;;;-146.25;66.10;52001.22;2080184;28;19999;-71
2023/06/11 03:58:46;;;;;;;;;;;;;;;-146.25;65.50;52015.41;2074990;28;21085;-71
2023/06/11 03:59:49;;;;;;;;;;;;;;;-146.25;64.81;52023.53;2072126;28;19926;-72
2023/06/11 04:00:54;;;;;;;;;;;;;;;-146.25;64.42;52027.56;2070213;28;20059;-71
2023/06/11 04:01:56;;;;;;;;;;;;;;;-146.25;63.52;52007.31;2080561;28;20051;-71
2023/06/11 04:02:59;;;;;;;;;;;;;;;-146.25;62.15;52033.66;2073324;28;20752;-71
2023/06/11 04:04:03;;;;;;;;;;;;;;;-146.25;61.45;52027.56;2072380;28;19922;-71
2023/06/11 04:05:08;;;;;;;;;;;;;;;-146.25;61.18;52066.09;2066524;28;19925;-71
2023/06/11 04:06:10;;;;;;;;;;;;;;;-146.25;59.69;51995.13;2079530;28;19963;-71
2023/06/11 04:07:12;;;;;;;;;;;;;;;-146.25;58.88;52051.91;2071864;28;25781;-71
2023/06/11 04:08:15;;;;;;;;;;;;;;;-146.25;57.80;52031.63;2080923;28;19921;-71
2023/06/11 04:09:17;;;;;;;;;;;;;;;-146.25;58.00;52017.44;2088055;28;20943;-71
2023/06/11 04:10:20;;;;;;;;;;;;;;;-146.25;56.93;52039.75;2073568;28;20773;-71
2023/06/11 04:11:24;;;;;;;;;;;;;;;-146.25;56.21;51999.19;2079678;28;20846;-71
2023/06/11 04:12:26;;;;;;;;;;;;;;;-146.25;54.87;52031.63;2074583;28;20059;-72
2023/06/11 04:13:27;;;;;;;;;;;;;;;-146.25;54.27;52015.41;2080352;28;20052;-71
2023/06/11 04:14:29;;;;;;;;;;;;;;;-146.25;53.48;52031.63;2077220;28;20822;-71
2023/06/11 04:15:32;;;;;;;;;;;;;;;-146.25;53.12;52013.38;2072136;28;19968;-71
2023/06/11 04:16:38;;;;;;;;;;;;;;;-146.25;52.74;51974.88;2076342;28;19921;-71
2023/06/11 04:17:39;;;;;;;;;;;;;;;-146.25;52.08;52033.66;2080171;28;19932;-71
2023/06/11 04:18:42;;;;;;;;;;;;;;;-146.25;52.25;52023.53;2067339;28;19933;-71
2023/06/11 04:19:45;;;;;;;;;;;;;;;-146.25;51.43;52005.28;2064000;28;19922;-71
2023/06/11 04:20:48;;;;;;;;;;;;;;;-146.25;52.00;52043.78;2069278;28;19930;-71
2023/06/11 04:21:50;;;;;;;;;;;;;;;-146.25;51.76;52001.22;2071730;28;19928;-71
2023/06/11 04:22:53;;;;;;;;;;;;;;;-146.25;50.03;52007.31;2073894;28;20004;-71
2023/06/11 04:23:56;;;;;;;;;;;;;;;-146.25;50.81;52064.06;2072159;28;21029;-71
2023/06/11 04:24:58;;;;;;;;;;;;;;;-146.25;48.77;52045.81;2078459;28;19921;-71
2023/06/11 04:26:03;;;;;;;;;;;;;;;-146.25;47.81;52021.50;2080300;28;19930;-71
2023/06/11 04:27:06;;;;;;;;;;;;;;;-146.25;47.73;52029.59;2072734;28;19976;-71
2023/06/11 04:28:09;;;;;;;;;;;;;;;-146.25;46.89;52025.53;2071876;28;19928;-71
2023/06/11 04:29:11;;;;;;;;;;;;;;;-146.25;47.21;52003.25;2072175;28;20048;-71
2023/06/11 04:30:14;;;;;;;;;;;;;;;-146.25;47.40;52033.66;2071041;28;20732;-71
2023/06/11 04:31:17;;;;;;;;;;;;;;;-146.25;47.34;52031.63;2064202;28;19921;-71
2023/06/11 04:32:20;;;;;;;;;;;;;;;-146.25;46.99;51997.16;2065408;28;20017;-71
2023/06/11 04:33:32;;;;;;;;;;;;;;;-146.25;46.27;52023.53;2072084;28;19952;-71
2023/06/11 04:34:37;;;;;;;;;;;;;;;-146.25;46.34;52013.38;2069586;28;20738;-70
2023/06/11 04:35:43;;;;;;;;;;;;;;;-146.25;45.93;51991.09;2070237;28;19921;-72
2023/06/11 04:36:45;;;;;;;;;;;;;;;-146.25;45.74;52035.69;2080498;28;20679;-70
2023/06/11 04:37:49;;;;;;;;;;;;;;;-146.25;45.78;51997.16;2088145;28;26273;-72
2023/06/11 04:39:02;;;;;;;;;;;;;;;-146.25;45.93;52007.31;2072954;28;19932;-71
2023/06/11 04:40:09;;;;;;;;;;;;;;;-146.25;45.47;52027.56;2072816;28;19914;-70
2023/06/11 04:41:12;;;;;;;;;;;;;;;-146.25;46.06;52058.00;2071758;28;20798;-70
2023/06/11 04:42:16;;;;;;;;;;;;;;;-146.25;44.46;52013.38;2065173;28;19922;-72
2023/06/11 04:43:22;;;;;;;;;;;;;;;-146.25;43.97;52021.50;2071753;28;20710;-71
2023/06/11 04:44:24;;;;;;;;;;;;;;;-146.25;43.52;52039.75;2070285;28;19984;-71
2023/06/11 04:45:26;;;;;;;;;;;;;;;-146.25;42.36;52011.34;2072056;28;19914;-72
2023/06/11 04:46:32;;;;;;;;;;;;;;;-146.25;43.96;52015.41;2074484;28;19948;-71
2023/06/11 04:47:37;;;;;;;;;;;;;;;-146.25;43.59;52037.72;2071587;28;20007;-72
2023/06/11 04:48:40;;;;;;;;;;;;;;;-146.25;43.21;52029.59;2068688;28;19981;-71
2023/06/11 04:50:54;;;;;;;;;;;;;;;-146.25;42.21;52035.69;2065520;28;20033;-70
2023/06/11 04:51:59;;;;;;;;;;;;;;;-146.25;42.68;51993.09;2063514;28;19968;-70
2023/06/11 04:53:01;;;;;;;;;;;;;;;-146.25;43.86;52003.25;2063267;28;20938;-70
2023/06/11 04:54:07;;;;;;;;;;;;;;;-146.25;44.88;52011.34;2055529;28;19926;-70
2023/06/11 04:55:12;;;;;;;;;;;;;;;-146.25;42.86;51995.13;2064558;28;20102;-70
2023/06/11 04:56:17;;;;;;;;;;;;;;;-146.25;41.56;52021.50;2062135;28;20130;-70
2023/06/11 04:57:18;;;;;;;;;;;;;;;-146.25;40.92;51991.09;2055501;28;19929;-70
2023/06/11 04:58:30;;;;;;;;;;;;;;;-146.25;40.65;52013.38;2049145;28;20909;-70
2023/06/11 04:59:32;;;;;;;;;;;;;;;-146.25;40.31;52019.47;2055879;28;20795;-70
2023/06/11 05:00:33;;;;;;;;;;;;;;;-146.25;40.40;52013.38;2063275;28;20711;-70
2023/06/11 05:01:46;;;;;;;;;;;;;;;-146.25;41.71;52007.31;2055580;28;20957;-70
2023/06/11 05:02:51;;;;;;;;;;;;;;;-146.25;41.31;52029.59;2062407;28;20711;-68
2023/06/11 05:03:53;;;;;;;;;;;;;;;-146.25;40.06;51991.09;2063202;28;20807;-68
2023/06/11 05:04:57;;;;;;;;;;;;;;;-146.25;40.35;52001.22;2055862;28;19934;-69
2023/06/11 05:06:01;;;;;;;;;;;;;;;-146.25;41.04;51993.09;2063332;28;20056;-68
2023/06/11 05:07:05;;;;;;;;;;;;;;;-146.25;39.81;51991.09;2064078;28;20762;-68
2023/06/11 05:08:09;;;;;;;;;;;;;;;-146.25;40.03;52025.53;2063463;28;19933;-68
2023/06/11 05:09:14;;;;;;;;;;;;;;;-146.25;41.38;52013.38;2055970;28;19922;-68
2023/06/11 05:10:19;;;;;;;;;;;;;;;-146.25;40.20;52013.38;2062276;28;19937;-69
2023/06/11 05:11:23;;;;;;;;;;;;;;;-146.25;40.51;51999.19;2055727;28;20082;-69
2023/06/11 05:12:24;;;;;;;;;;;;;;;-146.25;39.76;52021.50;2057458;28;19926;-69
2023/06/11 05:13:26;;;;;;;;;;;;;;;-146.25;40.46;52017.44;2063802;28;20890;-69
2023/06/11 05:14:36;;;;;;;;;;;;;;;-146.25;39.97;51993.09;2063297;28;20048;-68
2023/06/11 05:15:39;;;;;;;;;;;;;;;-146.25;39.94;52023.53;2062689;28;19921;-68
2023/06/11 05:16:41;;;;;;;;;;;;;;;-146.25;40.16;52003.25;2055108;28;19976;-68
2023/06/11 05:17:45;;;;;;;;;;;;;;;-146.25;39.76;52013.38;2055585;28;19925;-67
2023/06/11 05:18:47;;;;;;;;;;;;;;;-146.25;38.93;52043.78;2063436;28;20414;-67
2023/06/11 05:19:51;;;;;;;;;;;;;;;-146.25;38.80;51999.19;2071456;28;20000;-67
2023/06/11 05:20:53;;;;;;;;;;;;;;;-146.25;39.38;52011.34;2072503;28;19930;-67
2023/06/11 05:22:00;;;;;;;;;;;;;;;-146.25;38.83;51995.13;2064670;28;19933;-68
2023/06/11 05:23:03;;;;;;;;;;;;;;;-146.25;37.75;51974.88;2064526;28;19922;-69
2023/06/11 05:24:16;;;;;;;;;;;;;;;-146.25;36.98;51982.97;2063035;28;19918;-69
2023/06/11 05:25:19;;;;;;;;;;;;;;;-146.25;37.80;52033.66;2064633;28;20232;-70
2023/06/11 05:26:31;;;;;;;;;;;;;;;-146.25;37.47;52003.25;2063306;28;20781;-70